createdAt,value
2022-11-01T00:01:39.073Z,16.12
2022-11-01T00:04:06.133Z,16.04
2022-11-01T00:06:32.949Z,16.04
2022-11-01T00:09:00.965Z,16.10
2022-11-01T00:11:27.654Z,16.33
2022-11-01T00:13:54.249Z,16.37
2022-11-01T00:16:21.766Z,16.34
2022-11-01T00:18:48.727Z,16.10
2022-11-01T00:21:15.730Z,16.38
2022-11-01T00:23:43.160Z,16.32
2022-11-01T00:26:16.331Z,16.28
2022-11-01T00:28:43.058Z,16.31
2022-11-01T00:31:12.604Z,16.23
2022-11-01T00:33:40.073Z,16.47
2022-11-01T00:36:07.943Z,16.69
2022-11-01T00:38:34.919Z,16.70
2022-11-01T00:41:01.864Z,16.66
2022-11-01T00:43:30.331Z,16.97
2022-11-01T00:45:57.086Z,16.88
2022-11-01T00:48:23.926Z,16.95
2022-11-01T00:50:50.857Z,16.85
2022-11-01T00:53:17.502Z,16.82
2022-11-01T00:55:44.243Z,16.88
2022-11-01T00:58:10.958Z,16.80
2022-11-01T01:00:42.344Z,16.98
2022-11-01T01:03:09.315Z,16.82
2022-11-01T01:05:36.272Z,16.94
2022-11-01T01:08:03.599Z,16.89
2022-11-01T01:10:31.208Z,16.77
2022-11-01T01:12:58.186Z,16.73
2022-11-01T01:15:24.904Z,16.65
2022-11-01T01:17:53.132Z,16.82
2022-11-01T01:20:20.487Z,16.67
2022-11-01T01:22:47.772Z,16.73
2022-11-01T01:25:14.944Z,16.59
2022-11-01T01:27:41.582Z,16.84
2022-11-01T01:30:08.842Z,16.89
2022-11-01T01:32:36.098Z,16.67
2022-11-01T01:35:05.128Z,16.55
2022-11-01T01:37:32.010Z,16.67
2022-11-01T01:39:58.733Z,16.75
2022-11-01T01:42:28.997Z,16.79
2022-11-01T01:45:31.671Z,16.67
2022-11-01T01:48:01.426Z,16.80
2022-11-01T01:50:34.982Z,16.58
2022-11-01T01:53:05.343Z,16.75
2022-11-01T01:55:37.663Z,16.84
2022-11-01T01:58:05.989Z,16.88
2022-11-01T02:00:32.753Z,16.82
2022-11-01T02:02:59.702Z,16.69
2022-11-01T02:05:36.493Z,16.79
2022-11-01T02:08:05.693Z,16.76
2022-11-01T02:10:33.158Z,16.92
2022-11-01T02:13:00.650Z,16.92
2022-11-01T02:15:36.312Z,16.81
2022-11-01T02:18:12.685Z,16.99
2022-11-01T02:21:02.092Z,16.95
2022-11-01T02:23:56.965Z,16.97
2022-11-01T02:26:39.492Z,16.94
2022-11-01T02:29:17.906Z,17.07
2022-11-01T02:32:10.129Z,17.31
2022-11-01T02:34:43.693Z,17.09
2022-11-01T02:37:15.397Z,17.09
2022-11-01T02:39:48.911Z,17.04
2022-11-01T02:42:21.810Z,17.07
2022-11-01T02:44:55.300Z,17.06
2022-11-01T02:47:24.984Z,17.07
2022-11-01T02:49:57.699Z,17.06
2022-11-01T02:52:26.666Z,16.96
2022-11-01T02:54:57.346Z,16.96
2022-11-01T02:57:30.669Z,17.01
2022-11-01T02:59:57.651Z,17.05
2022-11-01T03:02:30.329Z,17.08
2022-11-01T03:04:59.715Z,17.14
2022-11-01T03:07:26.493Z,17.13
2022-11-01T03:09:53.197Z,16.96
2022-11-01T03:12:25.458Z,17.17
2022-11-01T03:14:57.688Z,17.19
2022-11-01T03:17:31.360Z,17.16
2022-11-01T03:20:05.665Z,17.08
2022-11-01T03:22:39.069Z,17.01
2022-11-01T03:25:10.947Z,17.03
2022-11-01T03:27:41.947Z,16.99
2022-11-01T03:30:11.786Z,17.07
2022-11-01T03:32:43.937Z,16.87
2022-11-01T03:35:16.085Z,16.85
2022-11-01T03:37:45.961Z,16.88
2022-11-01T03:40:16.918Z,16.89
2022-11-01T03:42:47.323Z,16.78
2022-11-01T03:45:17.830Z,16.77
2022-11-01T03:47:45.894Z,16.76
2022-11-01T03:50:15.144Z,16.71
2022-11-01T03:52:42.451Z,16.84
2022-11-01T03:55:09.697Z,16.85
2022-11-01T03:57:36.421Z,16.71
2022-11-01T04:00:03.738Z,16.93
2022-11-01T04:02:38.860Z,16.95
2022-11-01T04:05:08.066Z,17.01
2022-11-01T04:07:34.665Z,17.07
2022-11-01T04:10:01.479Z,16.97
2022-11-01T04:12:28.188Z,17.00
2022-11-01T04:14:54.705Z,16.87
2022-11-01T04:17:21.305Z,16.85
2022-11-01T04:19:47.875Z,16.82
2022-11-01T04:22:19.293Z,16.72
2022-11-01T04:24:48.809Z,16.71
2022-11-01T04:27:15.521Z,16.72
2022-11-01T04:29:42.188Z,16.71
2022-11-01T04:32:09.002Z,16.77
2022-11-01T04:34:35.712Z,16.74
2022-11-01T04:37:02.440Z,16.79
2022-11-01T04:39:30.669Z,16.72
2022-11-01T04:41:57.253Z,16.66
2022-11-01T04:44:24.023Z,16.71
2022-11-01T04:46:50.581Z,16.62
2022-11-01T04:49:17.140Z,16.68
2022-11-01T04:51:43.769Z,16.45
2022-11-01T04:54:10.795Z,16.32
2022-11-01T04:56:39.027Z,16.23
2022-11-01T04:59:05.625Z,16.10
2022-11-01T05:01:34.988Z,16.11
2022-11-01T05:04:05.381Z,16.09
2022-11-01T05:06:32.130Z,16.01
2022-11-01T05:08:58.991Z,15.90
2022-11-01T05:11:25.912Z,15.85
2022-11-01T05:13:54.259Z,15.77
2022-11-01T05:16:21.372Z,15.79
2022-11-01T05:18:48.399Z,15.67
2022-11-01T05:21:17.933Z,15.64
2022-11-01T05:23:46.812Z,15.56
2022-11-01T05:26:13.451Z,15.54
2022-11-01T05:28:39.952Z,15.58
2022-11-01T05:31:08.062Z,15.39
2022-11-01T05:33:34.776Z,15.29
2022-11-01T05:36:01.581Z,15.26
2022-11-01T05:38:28.515Z,15.21
2022-11-01T05:40:55.230Z,15.10
2022-11-01T05:43:22.020Z,15.01
2022-11-01T05:45:48.720Z,15.08
2022-11-01T05:48:16.875Z,14.93
2022-11-01T05:50:45.164Z,14.86
2022-11-01T05:53:13.028Z,14.80
2022-11-01T05:55:39.750Z,14.71
2022-11-01T05:58:07.134Z,14.67
2022-11-01T06:00:34.523Z,14.61
2022-11-01T06:03:02.309Z,14.60
2022-11-01T06:05:30.824Z,14.51
2022-11-01T06:07:59.959Z,14.52
2022-11-01T06:10:26.696Z,14.42
2022-11-01T06:12:53.973Z,14.38
2022-11-01T06:15:20.669Z,14.34
2022-11-01T06:17:47.175Z,14.25
2022-11-01T06:20:13.964Z,14.22
2022-11-01T06:22:41.838Z,14.25
2022-11-01T06:25:08.743Z,14.22
2022-11-01T06:27:35.359Z,14.18
2022-11-01T06:30:02.284Z,14.16
2022-11-01T06:32:28.919Z,14.08
2022-11-01T06:34:55.647Z,14.02
2022-11-01T06:37:22.232Z,13.96
2022-11-01T06:39:50.282Z,13.92
2022-11-01T06:42:16.978Z,13.96
2022-11-01T06:44:43.575Z,14.03
2022-11-01T06:47:12.288Z,13.88
2022-11-01T06:49:39.526Z,13.94
2022-11-01T06:52:06.816Z,13.82
2022-11-01T06:54:33.768Z,13.82
2022-11-01T06:57:01.694Z,13.73
2022-11-01T06:59:28.312Z,13.77
2022-11-01T07:01:55.158Z,13.73
2022-11-01T07:04:22.470Z,13.67
2022-11-01T07:06:49.486Z,13.65
2022-11-01T07:09:16.307Z,13.65
2022-11-01T07:11:42.920Z,13.65
2022-11-01T07:14:11.172Z,13.66
2022-11-01T07:16:37.775Z,13.71
2022-11-01T07:19:08.047Z,13.77
2022-11-01T07:21:34.675Z,13.77
2022-11-01T07:24:01.246Z,13.89
2022-11-01T07:26:28.010Z,13.97
2022-11-01T07:28:54.672Z,14.13
2022-11-01T07:31:22.693Z,14.23
2022-11-01T07:33:49.257Z,14.19
2022-11-01T07:36:15.975Z,14.31
2022-11-01T07:38:42.615Z,14.20
2022-11-01T07:41:09.444Z,14.08
2022-11-01T07:43:35.986Z,14.04
2022-11-01T07:46:02.787Z,14.05
2022-11-01T07:48:30.744Z,13.98
2022-11-01T07:50:57.385Z,13.89
2022-11-01T07:53:24.248Z,13.93
2022-11-01T07:55:51.605Z,13.91
2022-11-01T07:58:18.465Z,13.92
2022-11-01T08:00:45.769Z,13.93
2022-11-01T08:03:14.527Z,14.01
2022-11-01T08:05:43.106Z,14.17
2022-11-01T08:08:09.731Z,14.06
2022-11-01T08:10:37.584Z,14.07
2022-11-01T08:13:05.952Z,14.06
2022-11-01T08:15:33.350Z,14.05
2022-11-01T08:18:01.165Z,14.09
2022-11-01T08:20:28.310Z,14.12
2022-11-01T08:22:56.273Z,14.12
2022-11-01T08:25:23.478Z,14.18
2022-11-01T08:27:50.236Z,14.21
2022-11-01T08:30:17.854Z,14.25
2022-11-01T08:32:44.614Z,14.33
2022-11-01T08:35:11.393Z,14.57
2022-11-01T08:37:38.472Z,14.67
2022-11-01T08:40:08.121Z,14.62
2022-11-01T08:42:38.095Z,15.27
2022-11-01T08:45:05.476Z,16.18
2022-11-01T08:47:32.053Z,17.52
2022-11-01T08:49:58.699Z,16.03
2022-11-01T08:52:25.243Z,16.52
2022-11-01T08:54:51.823Z,18.83
2022-11-01T08:57:19.689Z,18.47
2022-11-01T08:59:46.297Z,19.55
2022-11-01T09:02:13.017Z,19.93
2022-11-01T09:04:39.822Z,19.68
2022-11-01T09:07:06.379Z,20.30
2022-11-01T09:09:32.991Z,20.04
2022-11-01T09:11:59.529Z,20.19
2022-11-01T09:14:27.958Z,19.17
2022-11-01T09:16:54.503Z,18.66
2022-11-01T09:19:21.128Z,18.56
2022-11-01T09:21:47.748Z,18.23
2022-11-01T09:24:16.080Z,17.58
2022-11-01T09:26:43.014Z,17.54
2022-11-01T09:29:10.607Z,17.10
2022-11-01T09:31:38.594Z,17.42
2022-11-01T09:34:05.224Z,17.29
2022-11-01T09:36:31.822Z,17.35
2022-11-01T09:38:58.521Z,17.29
2022-11-01T09:41:31.748Z,17.14
2022-11-01T09:44:01.256Z,17.44
2022-11-01T09:46:31.805Z,17.50
2022-11-01T09:49:02.817Z,17.33
2022-11-01T09:51:29.816Z,17.54
2022-11-01T09:54:00.541Z,17.64
2022-11-01T09:56:31.815Z,17.66
2022-11-01T09:59:08.736Z,17.84
2022-11-01T10:01:49.149Z,17.53
2022-11-01T10:04:31.622Z,17.52
2022-11-01T10:07:02.293Z,17.37
2022-11-01T10:09:38.371Z,17.37
2022-11-01T10:12:37.025Z,17.37
2022-11-01T10:15:19.317Z,17.22
2022-11-01T10:17:52.466Z,17.06
2022-11-01T10:20:33.491Z,16.99
2022-11-01T10:23:01.787Z,16.83
2022-11-01T10:25:31.651Z,16.68
2022-11-01T10:28:05.287Z,16.81
2022-11-01T10:30:38.263Z,16.85
2022-11-01T10:33:25.572Z,16.80
2022-11-01T10:35:57.160Z,16.71
2022-11-01T10:38:59.113Z,16.86
2022-11-01T10:41:25.724Z,16.85
2022-11-01T10:43:55.180Z,16.97
2022-11-01T10:46:25.273Z,16.99
2022-11-01T10:48:55.262Z,16.89
2022-11-01T10:51:27.952Z,16.81
2022-11-01T10:53:58.769Z,16.81
2022-11-01T10:56:32.069Z,16.61
2022-11-01T10:59:02.805Z,16.64
2022-11-01T11:01:35.631Z,16.65
2022-11-01T11:04:05.815Z,16.67
2022-11-01T11:06:36.117Z,16.60
2022-11-01T11:09:05.026Z,16.61
2022-11-01T11:11:35.664Z,16.73
2022-11-01T11:14:06.568Z,16.72
2022-11-01T11:16:39.019Z,16.65
2022-11-01T11:19:22.109Z,16.59
2022-11-01T11:21:53.241Z,16.53
2022-11-01T11:24:22.064Z,16.61
2022-11-01T11:26:53.978Z,16.50
2022-11-01T11:29:38.330Z,16.72
2022-11-01T11:32:12.946Z,16.86
2022-11-01T11:34:41.178Z,16.82
2022-11-01T11:37:19.667Z,16.60
2022-11-01T11:40:01.569Z,16.88
2022-11-01T11:42:28.299Z,16.90
2022-11-01T11:44:57.054Z,16.82
2022-11-01T11:47:25.957Z,16.71
2022-11-01T11:49:53.160Z,16.80
2022-11-01T11:52:28.428Z,16.86
2022-11-01T11:54:55.484Z,16.81
2022-11-01T11:57:24.707Z,16.90
2022-11-01T11:59:54.234Z,16.80
2022-11-01T12:02:24.693Z,16.79
2022-11-01T12:04:57.911Z,16.90
2022-11-01T12:07:29.577Z,16.65
2022-11-01T12:09:58.340Z,16.79
2022-11-01T12:12:27.267Z,16.88
2022-11-01T12:14:54.987Z,16.99
2022-11-01T12:17:24.683Z,17.05
2022-11-01T12:19:58.596Z,16.92
2022-11-01T12:22:29.548Z,16.96
2022-11-01T12:25:00.804Z,16.86
2022-11-01T12:27:32.037Z,16.74
2022-11-01T12:30:03.089Z,16.75
2022-11-01T12:32:35.223Z,16.70
2022-11-01T12:35:04.392Z,16.83
2022-11-01T12:37:42.587Z,16.71
2022-11-01T12:40:16.734Z,16.81
2022-11-01T12:42:49.701Z,16.84
2022-11-01T12:45:24.902Z,16.84
2022-11-01T12:47:55.644Z,16.96
2022-11-01T12:50:24.710Z,16.87
2022-11-01T12:52:58.639Z,16.71
2022-11-01T12:55:30.936Z,16.86
2022-11-01T12:57:58.136Z,16.77
2022-11-01T13:00:31.430Z,16.81
2022-11-01T13:03:09.164Z,16.89
2022-11-01T13:05:50.585Z,16.92
2022-11-01T13:08:27.369Z,16.98
2022-11-01T13:11:04.013Z,16.98
2022-11-01T13:13:39.588Z,17.01
2022-11-01T13:16:12.169Z,16.97
2022-11-01T13:18:45.010Z,16.97
2022-11-01T13:21:18.067Z,16.99
2022-11-01T13:23:53.758Z,16.96
2022-11-01T13:26:25.449Z,16.98
2022-11-01T13:29:02.405Z,17.02
2022-11-01T13:31:40.038Z,16.92
2022-11-01T13:34:22.781Z,16.95
2022-11-01T13:36:57.585Z,16.94
2022-11-01T13:39:34.686Z,17.01
2022-11-01T13:42:09.127Z,16.96
2022-11-01T13:44:40.951Z,17.11
2022-11-01T13:47:36.854Z,17.19
2022-11-01T13:50:35.065Z,17.18
2022-11-01T13:53:08.982Z,17.38
2022-11-01T13:55:42.625Z,17.60
2022-11-01T13:58:16.396Z,17.48
2022-11-01T14:00:44.572Z,17.47
2022-11-01T14:03:23.727Z,17.44
2022-11-01T14:06:24.916Z,17.48
2022-11-01T14:09:32.045Z,17.47
2022-11-01T14:12:11.200Z,17.31
2022-11-01T14:14:51.476Z,17.43
2022-11-01T14:17:51.166Z,17.36
2022-11-01T14:20:54.409Z,17.43
2022-11-01T14:23:58.522Z,17.27
2022-11-01T14:26:38.076Z,17.44
2022-11-01T14:29:10.843Z,17.58
2022-11-01T14:31:39.133Z,17.47
2022-11-01T14:34:08.216Z,17.68
2022-11-01T14:36:39.077Z,17.66
2022-11-01T14:39:13.733Z,17.54
2022-11-01T14:41:44.443Z,17.34
2022-11-01T14:44:16.967Z,17.17
2022-11-01T14:46:48.066Z,17.11
2022-11-01T14:49:25.331Z,17.03
2022-11-01T14:51:57.479Z,17.05
2022-11-01T14:54:27.970Z,16.79
2022-11-01T14:56:58.229Z,16.70
2022-11-01T14:59:26.966Z,16.53
2022-11-01T15:02:02.199Z,16.50
2022-11-01T15:04:31.663Z,16.45
2022-11-01T15:06:59.475Z,16.30
2022-11-01T15:09:28.003Z,16.24
2022-11-01T15:12:04.938Z,16.23
2022-11-01T15:14:35.920Z,16.23
2022-11-01T15:17:03.056Z,16.04
2022-11-01T15:19:34.097Z,16.12
2022-11-01T15:22:02.589Z,16.03
2022-11-01T15:24:32.219Z,15.96
2022-11-01T15:27:07.092Z,15.98
2022-11-01T15:29:34.058Z,15.88
2022-11-01T15:32:01.293Z,15.90
2022-11-01T15:34:29.657Z,15.81
2022-11-01T15:36:56.339Z,15.67
2022-11-01T15:39:25.226Z,15.71
2022-11-01T15:41:52.340Z,15.65
2022-11-01T15:44:22.878Z,15.64
2022-11-01T15:46:51.223Z,15.59
2022-11-01T15:49:19.708Z,15.48
2022-11-01T15:51:50.575Z,15.51
2022-11-01T15:54:32.054Z,15.42
2022-11-01T15:57:02.396Z,15.31
2022-11-01T15:59:35.403Z,15.27
2022-11-01T16:02:07.592Z,15.16
2022-11-01T16:04:42.529Z,15.21
2022-11-01T16:07:15.300Z,15.09
2022-11-01T16:09:46.486Z,14.96
2022-11-01T16:12:19.162Z,15.02
2022-11-01T16:14:54.072Z,14.84
2022-11-01T16:17:30.812Z,14.81
2022-11-01T16:19:57.499Z,14.77
2022-11-01T16:22:37.064Z,14.75
2022-11-01T16:25:16.867Z,14.73
2022-11-01T16:27:56.258Z,14.76
2022-11-01T16:30:44.811Z,14.63
2022-11-01T16:33:23.973Z,14.58
2022-11-01T16:35:52.456Z,14.63
2022-11-01T16:38:39.328Z,14.54
2022-11-01T16:41:15.706Z,14.71
2022-11-01T16:43:44.054Z,14.59
2022-11-01T16:46:12.057Z,14.54
2022-11-01T16:48:50.447Z,14.54
2022-11-01T16:51:17.429Z,14.51
2022-11-01T16:53:44.179Z,14.51
2022-11-01T16:59:08.188Z,14.53
2022-11-01T17:01:37.759Z,14.45
2022-11-01T17:04:05.308Z,14.54
2022-11-01T17:06:36.151Z,14.49
2022-11-01T17:09:10.446Z,14.38
2022-11-01T17:11:36.996Z,14.34
2022-11-01T17:14:03.497Z,14.40
2022-11-01T17:16:30.192Z,14.28
2022-11-01T17:19:00.247Z,14.41
2022-11-01T17:21:29.154Z,14.35
2022-11-01T17:23:56.882Z,14.35
2022-11-01T17:26:23.656Z,14.32
2022-11-01T17:28:52.502Z,14.16
2022-11-01T17:31:19.667Z,14.10
2022-11-01T17:33:46.423Z,14.20
2022-11-01T17:36:15.828Z,14.18
2022-11-01T17:38:43.103Z,14.15
2022-11-01T17:41:14.607Z,14.11
2022-11-01T17:43:41.119Z,14.10
2022-11-01T17:46:13.375Z,14.12
2022-11-01T17:48:40.036Z,14.02
2022-11-01T17:51:06.837Z,14.02
2022-11-01T17:53:34.873Z,14.03
2022-11-01T17:56:01.472Z,14.06
2022-11-01T17:58:28.137Z,13.99
2022-11-01T18:00:54.771Z,13.98
2022-11-01T18:03:21.391Z,13.95
2022-11-01T18:05:48.102Z,14.20
2022-11-01T18:08:17.851Z,14.08
2022-11-01T18:10:56.842Z,14.04
2022-11-01T18:13:45.625Z,13.97
2022-11-01T18:16:24.931Z,13.92
2022-11-01T18:19:04.387Z,13.89
2022-11-01T18:21:36.916Z,13.72
2022-11-01T18:24:14.323Z,13.65
2022-11-01T18:26:45.772Z,13.64
2022-11-01T18:29:16.832Z,13.61
2022-11-01T18:31:48.674Z,13.65
2022-11-01T18:34:33.414Z,13.64
2022-11-01T18:37:08.939Z,13.66
2022-11-01T18:39:40.063Z,13.72
2022-11-01T18:42:10.037Z,13.85
2022-11-01T18:44:37.354Z,13.96
2022-11-01T18:47:08.063Z,13.95
2022-11-01T18:49:34.912Z,13.82
2022-11-01T18:52:01.670Z,13.79
2022-11-01T18:54:30.432Z,13.70
2022-11-01T18:56:58.443Z,13.58
2022-11-01T18:59:29.583Z,13.54
2022-11-01T19:02:02.031Z,13.54
2022-11-01T19:04:30.906Z,13.62
2022-11-01T19:07:09.756Z,13.58
2022-11-01T19:09:38.283Z,13.52
2022-11-01T19:12:14.564Z,13.57
2022-11-01T19:14:43.107Z,13.48
2022-11-01T19:17:19.584Z,13.50
2022-11-01T19:19:46.284Z,13.64
2022-11-01T19:22:31.118Z,13.67
2022-11-01T19:24:58.406Z,13.61
2022-11-01T19:27:24.937Z,13.59
2022-11-01T19:29:57.862Z,13.60
2022-11-01T19:32:25.960Z,13.65
2022-11-01T19:34:53.205Z,13.55
2022-11-01T19:37:25.364Z,13.57
2022-11-01T19:39:53.761Z,13.70
2022-11-01T19:42:26.171Z,13.69
2022-11-01T19:44:57.937Z,13.72
2022-11-01T19:47:32.381Z,13.63
2022-11-01T19:49:59.160Z,13.76
2022-11-01T19:52:31.491Z,13.66
2022-11-01T19:54:58.323Z,13.67
2022-11-01T19:57:30.104Z,13.70
2022-11-01T20:00:17.676Z,13.79
2022-11-01T20:02:44.631Z,13.80
2022-11-01T20:05:26.601Z,13.81
2022-11-01T20:08:01.335Z,14.01
2022-11-01T20:10:28.353Z,14.08
2022-11-01T20:12:54.970Z,14.06
2022-11-01T20:15:23.097Z,14.13
2022-11-01T20:17:49.620Z,14.15
2022-11-01T20:20:16.314Z,14.18
2022-11-01T20:22:44.015Z,14.22
2022-11-01T20:25:13.474Z,14.31
2022-11-01T20:27:40.321Z,14.29
2022-11-01T20:30:08.609Z,14.30
2022-11-01T20:32:36.547Z,14.28
2022-11-01T20:35:03.575Z,14.25
2022-11-01T20:37:30.341Z,14.32
2022-11-01T20:39:57.049Z,14.25
2022-11-01T20:42:23.590Z,14.17
2022-11-01T20:44:50.222Z,14.15
2022-11-01T20:47:16.725Z,14.02
2022-11-01T20:49:44.641Z,14.01
2022-11-01T20:52:37.905Z,14.05
2022-11-01T20:54:57.868Z,14.05
2022-11-01T20:57:28.271Z,14.10
2022-11-01T20:59:55.180Z,14.18
2022-11-01T21:02:22.196Z,14.19
2022-11-01T21:04:58.358Z,14.16
2022-11-01T21:07:28.557Z,14.24
2022-11-01T21:09:55.750Z,14.18
2022-11-01T21:12:38.033Z,14.21
2022-11-01T21:15:29.527Z,14.32
2022-11-01T21:18:08.372Z,14.41
2022-11-01T21:20:39.539Z,14.38
2022-11-01T21:23:22.630Z,14.39
2022-11-01T21:25:51.156Z,14.42
2022-11-01T21:28:25.737Z,14.48
2022-11-01T21:30:53.111Z,14.42
2022-11-01T21:33:31.275Z,14.40
2022-11-01T21:35:59.345Z,14.41
2022-11-01T21:38:37.035Z,14.40
2022-11-01T21:41:23.852Z,14.33
2022-11-01T21:43:51.197Z,14.35
2022-11-01T21:46:21.178Z,14.39
2022-11-01T21:48:49.357Z,14.38
2022-11-01T21:51:17.357Z,14.40
2022-11-01T21:53:43.933Z,14.40
2022-11-01T21:56:10.505Z,14.41
2022-11-01T21:58:37.175Z,14.49
2022-11-01T22:01:04.593Z,14.58
2022-11-01T22:03:31.294Z,14.45
2022-11-01T22:05:57.927Z,14.44
2022-11-01T22:08:25.950Z,14.57
2022-11-01T22:10:52.795Z,14.59
2022-11-01T22:13:19.611Z,14.56
2022-11-01T22:15:46.269Z,14.56
2022-11-01T22:18:12.867Z,14.50
2022-11-01T22:20:39.411Z,14.59
2022-11-01T22:23:06.355Z,14.56
2022-11-01T22:25:34.679Z,14.54
2022-11-01T22:28:01.325Z,14.49
2022-11-01T22:30:27.834Z,14.59
2022-11-01T22:32:54.396Z,14.57
2022-11-01T22:35:21.588Z,14.59
2022-11-01T22:37:48.338Z,14.49
2022-11-01T22:40:16.150Z,14.59
2022-11-01T22:42:44.157Z,14.58
2022-11-01T22:45:15.397Z,14.58
2022-11-01T22:47:42.471Z,14.61
2022-11-01T22:50:13.018Z,14.55
2022-11-01T22:52:42.621Z,14.40
2022-11-01T22:55:20.649Z,14.28
2022-11-01T22:57:53.089Z,14.17
2022-11-01T23:00:29.373Z,14.15
2022-11-01T23:02:59.827Z,14.12
2022-11-01T23:05:26.907Z,14.15
2022-11-01T23:07:54.977Z,14.22
2022-11-01T23:10:24.766Z,14.17
2022-11-01T23:13:15.440Z,14.28
2022-11-01T23:15:43.851Z,14.24
2022-11-01T23:18:18.751Z,14.40
2022-11-01T23:20:54.149Z,14.29
2022-11-01T23:23:21.581Z,14.36
2022-11-01T23:25:48.641Z,14.38
2022-11-01T23:28:17.353Z,14.33
2022-11-01T23:30:45.173Z,14.40
2022-11-01T23:33:13.463Z,14.38
2022-11-01T23:35:40.492Z,14.45
2022-11-01T23:38:17.074Z,14.46
2022-11-01T23:40:44.365Z,14.44
2022-11-01T23:43:24.454Z,14.37
2022-11-01T23:45:51.884Z,14.39
2022-11-01T23:48:19.939Z,14.32
2022-11-01T23:50:47.009Z,14.38
2022-11-01T23:53:14.948Z,14.46
2022-11-01T23:55:45.514Z,14.41
2022-11-01T23:58:16.746Z,14.23
